Time;durP1;ratioP1;P1;durP2;ratioP2;P2;SDS_P1;SDS_P2;PMS_P1;PMS_P2;Temp;Humidity;BMP_temperature;BMP_pressure;BME280_temperature;BME280_humidity;BME280_pressure;Samples;Min_cycle;Max_cycle;Signal;HPM_P1;HPM_P2
2022/05/23 00:00:29;;;;;;;1.80;1.63;;;15.10;99.90;;;;;;4612349;31;20063;-84
2022/05/23 00:02:58;;;;;;;2.20;2.00;;;15.10;99.90;;;;;;4613497;31;20067;-84
2022/05/23 00:05:27;;;;;;;2.03;1.67;;;15.00;99.90;;;;;;4626479;31;20055;-84
2022/05/23 00:07:59;;;;;;;2.42;1.98;;;15.00;99.90;;;;;;4613250;31;20056;-84
2022/05/23 00:10:29;;;;;;;2.00;1.90;;;15.10;99.90;;;;;;4612433;31;20067;-84
2022/05/23 00:13:03;;;;;;;2.28;2.08;;;15.20;99.90;;;;;;4612175;31;20040;-85
2022/05/23 00:15:31;;;;;;;1.80;1.70;;;15.20;99.90;;;;;;4626382;30;20068;-84
2022/05/23 00:18:19;;;;;;;3.72;2.25;;;15.30;99.90;;;;;;4635404;30;20067;-85
2022/05/23 00:22:05;;;;;;;3.42;3.03;;;15.30;99.90;;;;;;4625985;30;20404;-84
2022/05/23 00:25:28;;;;;;;3.85;1.92;;;15.40;99.90;;;;;;4612848;31;20048;-84
2022/05/23 00:29:05;;;;;;;3.25;1.92;;;15.40;99.90;;;;;;4611940;31;20051;-85
2022/05/23 00:36:11;;;;;;;5.10;2.88;;;15.40;99.90;;;;;;4610699;31;20044;-84
2022/05/23 00:39:23;;;;;;;2.80;1.60;;;15.40;99.90;;;;;;4611626;31;20074;-84
2022/05/23 00:46:29;;;;;;;1.98;1.77;;;15.40;99.90;;;;;;4624286;31;20067;-81
2022/05/23 00:49:55;;;;;;;1.58;1.48;;;15.40;99.90;;;;;;4624437;31;20069;-80
2022/05/23 00:53:07;;;;;;;2.45;2.35;;;15.40;99.90;;;;;;4610506;31;20063;-81
2022/05/23 00:56:13;;;;;;;3.67;2.33;;;15.40;99.90;;;;;;4625637;31;20511;-80
2022/05/23 00:59:41;;;;;;;1.83;1.73;;;15.30;99.90;;;;;;4643663;30;20051;-80
2022/05/23 01:02:55;;;;;;;2.28;2.08;;;15.30;99.90;;;;;;4646734;30;20051;-79
2022/05/23 01:05:33;;;;;;;3.70;2.38;;;15.20;99.90;;;;;;4649339;30;20068;-80
2022/05/23 01:08:03;;;;;;;1.52;1.42;;;15.10;99.90;;;;;;4611738;31;20067;-79
2022/05/23 01:10:38;;;;;;;2.33;1.95;;;15.00;99.90;;;;;;4639301;30;20135;-80
2022/05/23 01:13:07;;;;;;;1.50;1.40;;;15.00;99.90;;;;;;4638909;30;20504;-80
2022/05/23 01:15:35;;;;;;;1.77;1.67;;;14.90;99.90;;;;;;4610777;31;20067;-79
2022/05/23 01:18:04;;;;;;;1.58;1.48;;;14.90;99.90;;;;;;4618964;30;20494;-82
2022/05/23 01:20:32;;;;;;;2.50;2.08;;;14.90;99.90;;;;;;4641794;30;20047;-82
2022/05/23 01:23:28;;;;;;;3.58;1.50;;;14.80;99.90;;;;;;4628137;31;20063;-82
2022/05/23 01:26:09;;;;;;;6.22;2.03;;;14.70;99.90;;;;;;4641817;30;20047;-82
2022/05/23 01:28:44;;;;;;;2.30;2.10;;;14.70;99.90;;;;;;4641479;30;20414;-82
2022/05/23 01:31:27;;;;;;;1.60;1.50;;;14.60;99.90;;;;;;4642002;30;20059;-84
2022/05/23 01:33:57;;;;;;;6.23;2.10;;;14.60;99.90;;;;;;4614132;31;20059;-82
2022/05/23 01:36:25;;;;;;;4.72;2.22;;;14.70;99.90;;;;;;4641654;30;20074;-82
2022/05/23 01:38:53;;;;;;;3.65;1.92;;;14.70;99.90;;;;;;4627765;31;20051;-82
2022/05/23 01:41:24;;;;;;;2.15;1.67;;;14.70;99.90;;;;;;4641308;30;20063;-82
2022/05/23 01:44:00;;;;;;;2.75;1.67;;;14.60;99.90;;;;;;4642100;30;20059;-82
2022/05/23 01:46:35;;;;;;;2.08;1.85;;;14.50;99.90;;;;;;4626873;31;20696;-81
2022/05/23 01:49:14;;;;;;;3.13;2.88;;;14.50;99.90;;;;;;4627153;30;20059;-82
2022/05/23 01:51:42;;;;;;;4.68;3.08;;;14.40;99.90;;;;;;4630805;30;20090;-81
2022/05/23 01:54:12;;;;;;;2.73;2.13;;;14.40;99.90;;;;;;4624607;31;20052;-81
2022/05/23 01:56:41;;;;;;;2.22;2.00;;;14.40;99.90;;;;;;4624749;31;20056;-82
2022/05/23 02:02:01;;;;;;;3.97;3.17;;;14.40;99.90;;;;;;4624554;31;20067;-82
2022/05/23 02:04:36;;;;;;;2.00;1.90;;;14.40;99.90;;;;;;4625199;31;20060;-82
2022/05/23 02:07:05;;;;;;;2.22;2.03;;;14.40;99.90;;;;;;4627793;31;20066;-83
2022/05/23 02:09:36;;;;;;;3.88;2.17;;;14.40;99.90;;;;;;4626954;31;20067;-83
2022/05/23 02:12:13;;;;;;;2.92;2.13;;;14.60;99.90;;;;;;4641907;30;20063;-82
2022/05/23 02:14:41;;;;;;;2.20;2.10;;;14.70;99.90;;;;;;4641397;30;20055;-82
2022/05/23 02:17:23;;;;;;;2.37;2.17;;;14.80;99.90;;;;;;4641331;30;20059;-83
2022/05/23 02:19:53;;;;;;;3.33;1.98;;;14.90;99.90;;;;;;4641444;30;20802;-82
2022/05/23 02:22:20;;;;;;;2.97;2.72;;;14.90;99.90;;;;;;4641714;30;20059;-83
2022/05/23 02:24:56;;;;;;;5.30;2.17;;;14.90;99.90;;;;;;4641229;30;20047;-82
2022/05/23 02:27:24;;;;;;;2.25;2.15;;;14.90;99.90;;;;;;4627848;30;20073;-82
2022/05/23 02:29:52;;;;;;;4.25;2.13;;;14.90;99.90;;;;;;4623264;30;20082;-82
2022/05/23 02:32:20;;;;;;;2.60;2.40;;;15.00;99.90;;;;;;4624417;31;20059;-84
2022/05/23 02:34:48;;;;;;;3.22;1.73;;;15.00;99.90;;;;;;4612084;31;20083;-85
2022/05/23 02:37:16;;;;;;;2.03;1.92;;;15.00;99.90;;;;;;4596717;31;20062;-85
2022/05/23 02:39:48;;;;;;;5.65;2.08;;;15.00;99.90;;;;;;4606768;31;20052;-86
2022/05/23 02:42:18;;;;;;;2.03;1.75;;;15.00;99.90;;;;;;4595422;31;20049;-84
2022/05/23 02:44:47;;;;;;;2.97;2.03;;;15.00;99.90;;;;;;4596290;31;20052;-86
2022/05/23 02:47:21;;;;;;;2.22;1.98;;;15.00;99.90;;;;;;4611407;31;20516;-84
2022/05/23 02:49:50;;;;;;;2.67;2.50;;;15.10;99.90;;;;;;4610558;31;20068;-85
2022/05/23 02:52:38;;;;;;;3.40;2.35;;;15.10;99.90;;;;;;4609023;31;20060;-85
2022/05/23 02:55:15;;;;;;;2.30;2.15;;;15.10;99.90;;;;;;4610743;31;20067;-84
2022/05/23 02:57:43;;;;;;;3.05;2.85;;;15.00;99.90;;;;;;4610258;31;20428;-85
2022/05/23 03:00:20;;;;;;;2.08;1.73;;;15.00;99.90;;;;;;4596122;31;20052;-84
2022/05/23 03:03:02;;;;;;;2.70;2.50;;;15.00;99.90;;;;;;4597339;31;20063;-86
2022/05/23 03:05:51;;;;;;;2.38;2.28;;;15.00;99.90;;;;;;4605228;31;20052;-87
2022/05/23 03:08:23;;;;;;;2.37;2.03;;;14.90;99.90;;;;;;4613191;31;20078;-85
2022/05/23 03:10:55;;;;;;;2.47;2.22;;;14.90;99.90;;;;;;4627373;31;20303;-85
2022/05/23 03:13:23;;;;;;;2.33;2.13;;;14.80;99.90;;;;;;4613209;31;20056;-84
2022/05/23 03:15:51;;;;;;;2.60;2.40;;;14.80;99.90;;;;;;4627011;31;20083;-85
2022/05/23 03:18:24;;;;;;;4.28;2.00;;;14.80;99.90;;;;;;4626598;31;20519;-85
2022/05/23 03:21:03;;;;;;;3.00;2.15;;;14.80;99.90;;;;;;4612795;31;20510;-87
2022/05/23 03:29:11;;;;;;;2.55;2.35;;;14.80;99.90;;;;;;4626129;31;20048;-86
2022/05/23 03:31:39;;;;;;;2.22;2.03;;;14.80;99.90;;;;;;4643108;30;20067;-86
2022/05/23 03:34:09;;;;;;;1.27;1.23;;;14.80;99.90;;;;;;4629562;31;20060;-87
2022/05/23 03:36:37;;;;;;;7.82;2.13;;;14.80;99.90;;;;;;4629631;30;20081;-85
2022/05/23 03:39:05;;;;;;;3.45;2.65;;;14.80;99.90;;;;;;4629080;31;20078;-85
2022/05/23 03:41:33;;;;;;;6.10;2.20;;;14.80;99.90;;;;;;4643473;30;20422;-86
2022/05/23 03:44:02;;;;;;;3.70;2.35;;;14.80;99.90;;;;;;4629798;31;20483;-86
2022/05/23 03:46:32;;;;;;;2.85;2.60;;;14.70;99.90;;;;;;4628453;30;20051;-85
2022/05/23 03:49:03;;;;;;;3.67;2.08;;;14.70;99.90;;;;;;4629085;31;20047;-84
2022/05/23 03:51:31;;;;;;;1.83;1.73;;;14.70;99.90;;;;;;4629382;31;20510;-86
2022/05/23 03:53:59;;;;;;;1.67;1.60;;;14.70;99.90;;;;;;4627291;31;20051;-86
2022/05/23 03:56:27;;;;;;;2.35;1.50;;;14.60;99.90;;;;;;4642598;30;20112;-85
2022/05/23 03:58:57;;;;;;;2.55;1.90;;;14.70;99.90;;;;;;4643476;30;20063;-86
2022/05/23 04:01:30;;;;;;;3.43;3.17;;;14.60;99.90;;;;;;4613932;31;20063;-84
2022/05/23 04:04:36;;;;;;;2.58;1.90;;;14.60;99.90;;;;;;4634051;30;20486;-83
2022/05/23 04:07:34;;;;;;;2.13;1.73;;;14.60;99.90;;;;;;4647290;30;20066;-85
2022/05/23 04:10:14;;;;;;;3.47;1.60;;;14.60;99.90;;;;;;4644198;30;20476;-85
2022/05/23 04:12:43;;;;;;;1.60;1.50;;;14.60;99.90;;;;;;4630360;30;20062;-84
2022/05/23 04:15:13;;;;;;;5.07;2.42;;;14.60;99.90;;;;;;4644467;30;20066;-84
2022/05/23 04:17:41;;;;;;;2.47;2.38;;;14.60;99.90;;;;;;4643715;30;20050;-84
2022/05/23 04:20:10;;;;;;;2.88;2.38;;;14.60;99.90;;;;;;4644253;30;20066;-84
2022/05/23 04:22:49;;;;;;;2.92;2.67;;;14.60;99.90;;;;;;4616583;30;20188;-84
2022/05/23 04:25:24;;;;;;;2.17;2.08;;;14.60;99.90;;;;;;4625203;30;20055;-83
2022/05/23 04:27:56;;;;;;;2.00;1.90;;;14.70;99.90;;;;;;4627613;30;20051;-83
2022/05/23 04:30:28;;;;;;;2.45;2.25;;;14.70;99.90;;;;;;4640841;30;20067;-83
2022/05/23 04:36:02;;;;;;;5.57;2.33;;;14.70;99.90;;;;;;4618267;31;20056;-84
2022/05/23 04:38:39;;;;;;;6.18;2.00;;;14.70;99.90;;;;;;4584963;31;20304;-84
2022/05/23 04:41:20;;;;;;;3.65;3.22;;;14.70;99.90;;;;;;4604843;31;20075;-83
2022/05/23 04:44:07;;;;;;;2.15;2.00;;;14.80;99.90;;;;;;4611816;31;20055;-84
2022/05/23 04:49:50;;;;;;;7.22;2.63;;;15.00;99.90;;;;;;4603048;31;20507;-82
2022/05/23 04:52:37;;;;;;;2.50;1.83;;;15.10;99.90;;;;;;4612767;31;20108;-78
2022/05/23 04:55:06;;;;;;;3.22;2.22;;;15.20;99.90;;;;;;4604297;31;20063;-78
2022/05/23 04:57:34;;;;;;;5.32;2.40;;;15.20;99.90;;;;;;4626653;30;20055;-79
2022/05/23 05:00:07;;;;;;;1.90;1.80;;;15.20;99.90;;;;;;4626257;31;20047;-80
2022/05/23 05:02:49;;;;;;;2.25;2.03;;;15.20;99.90;;;;;;4637965;30;20051;-80
2022/05/23 05:05:19;;;;;;;9.73;4.07;;;15.20;99.90;;;;;;4622129;30;20149;-79
2022/05/23 05:07:52;;;;;;;2.90;2.53;;;15.10;99.90;;;;;;4625470;30;20074;-79
2022/05/23 05:10:21;;;;;;;6.10;3.85;;;15.20;99.90;;;;;;4598671;31;20073;-80
2022/05/23 05:12:50;;;;;;;6.45;3.58;;;15.20;99.90;;;;;;4626556;30;20082;-80
2022/05/23 05:15:24;;;;;;;2.53;2.30;;;15.20;99.90;;;;;;4612489;31;20067;-79
2022/05/23 05:17:54;;;;;;;2.97;1.65;;;15.30;99.90;;;;;;4617581;30;20059;-79
2022/05/23 05:20:23;;;;;;;3.17;1.95;;;15.30;99.90;;;;;;4639962;30;20055;-80
2022/05/23 05:23:31;;;;;;;2.50;2.30;;;15.40;99.90;;;;;;4607384;31;20063;-80
2022/05/23 05:26:53;;;;;;;2.83;2.63;;;15.40;99.90;;;;;;4622238;30;20796;-83
2022/05/23 05:30:12;;;;;;;2.22;1.80;;;15.50;99.90;;;;;;4622205;30;20063;-82
2022/05/23 05:33:20;;;;;;;2.33;2.13;;;15.50;99.90;;;;;;4640108;30;20510;-82
2022/05/23 05:36:34;;;;;;;2.00;1.90;;;15.60;99.90;;;;;;4625535;30;20070;-82
2022/05/23 05:39:06;;;;;;;4.93;2.30;;;15.70;99.90;;;;;;4627509;31;20058;-81
2022/05/23 05:41:48;;;;;;;2.10;2.00;;;15.70;99.90;;;;;;4638694;30;20063;-83
2022/05/23 05:44:42;;;;;;;1.88;1.77;;;15.70;99.90;;;;;;4638549;30;20059;-84
2022/05/23 05:47:47;;;;;;;9.75;2.92;;;15.70;99.90;;;;;;4623163;30;20063;-84
2022/05/23 05:50:45;;;;;;;2.33;1.95;;;15.80;99.90;;;;;;4565167;31;20057;-84
2022/05/23 05:53:30;;;;;;;16.20;4.57;;;15.80;99.90;;;;;;4559762;31;20068;-84
2022/05/23 05:56:11;;;;;;;3.15;2.83;;;15.70;99.90;;;;;;4560808;31;20052;-85
2022/05/23 05:58:57;;;;;;;1.73;1.63;;;15.70;99.90;;;;;;4557053;31;20141;-85
2022/05/23 06:01:31;;;;;;;4.38;2.60;;;15.80;99.90;;;;;;4559514;31;20056;-86
2022/05/23 06:04:09;;;;;;;5.05;2.53;;;15.80;99.90;;;;;;4573373;31;20075;-83
2022/05/23 06:12:38;;;;;;;2.63;2.17;;;16.00;99.90;;;;;;4571678;31;20065;-83
2022/05/23 06:15:33;;;;;;;4.15;2.10;;;16.10;99.90;;;;;;4569739;31;20436;-84
2022/05/23 06:18:09;;;;;;;10.10;3.05;;;16.20;99.90;;;;;;4562422;31;20060;-82
2022/05/23 06:20:53;;;;;;;2.38;2.17;;;16.20;99.90;;;;;;4573372;31;20057;-84
2022/05/23 06:23:28;;;;;;;1.60;1.50;;;16.20;99.90;;;;;;4612586;30;20071;-83
2022/05/23 06:26:22;;;;;;;2.95;2.17;;;16.20;99.90;;;;;;4624914;30;20055;-82
2022/05/23 06:29:19;;;;;;;3.03;2.38;;;16.40;99.90;;;;;;4623853;30;20070;-83
2022/05/23 06:31:52;;;;;;;1.83;1.73;;;16.50;99.90;;;;;;4601732;30;20067;-82
2022/05/23 06:34:25;;;;;;;1.75;1.65;;;16.50;99.90;;;;;;4632705;30;20554;-82
2022/05/23 06:36:56;;;;;;;2.80;2.60;;;16.40;99.90;;;;;;4628876;30;20066;-82
2022/05/23 06:39:26;;;;;;;2.42;2.05;;;16.40;99.90;;;;;;4627920;30;20543;-82
2022/05/23 06:42:18;;;;;;;3.67;1.90;;;16.40;99.90;;;;;;4628953;30;20747;-82
2022/05/23 06:45:11;;;;;;;2.97;2.78;;;16.30;99.90;;;;;;4624686;30;20307;-82
2022/05/23 06:47:57;;;;;;;2.65;2.15;;;16.40;99.90;;;;;;4628339;30;20055;-82
2022/05/23 06:50:47;;;;;;;10.35;2.47;;;16.40;99.90;;;;;;4623564;31;20072;-81
2022/05/23 06:53:23;;;;;;;2.78;2.30;;;16.50;99.90;;;;;;4636726;30;20537;-82
2022/05/23 06:56:17;;;;;;;1.85;1.75;;;16.50;99.90;;;;;;4626447;30;20067;-82
2022/05/23 06:58:53;;;;;;;2.60;2.08;;;16.40;99.90;;;;;;4612152;31;20070;-83
2022/05/23 07:01:29;;;;;;;2.53;2.33;;;16.40;99.90;;;;;;4619618;30;20071;-83
2022/05/23 07:13:19;;;;;;;1.52;1.42;;;17.20;99.90;;;;;;4623620;30;20051;-82
2022/05/23 07:15:52;;;;;;;3.30;3.05;;;17.30;99.90;;;;;;4608077;31;20063;-83
2022/05/23 07:18:22;;;;;;;2.35;2.15;;;17.50;99.90;;;;;;4607289;30;20057;-82
2022/05/23 07:20:52;;;;;;;2.70;2.47;;;17.70;99.90;;;;;;4630609;30;20052;-82
2022/05/23 07:23:26;;;;;;;4.78;2.63;;;17.60;99.90;;;;;;4614505;30;20499;-81
2022/05/23 07:26:06;;;;;;;3.67;2.50;;;17.50;99.90;;;;;;4633950;30;20058;-82
2022/05/23 07:28:50;;;;;;;6.60;2.17;;;17.60;99.90;;;;;;4608906;31;20048;-82
2022/05/23 07:31:25;;;;;;;4.10;2.85;;;17.80;99.90;;;;;;4619242;30;20063;-82
2022/05/23 07:33:54;;;;;;;1.48;1.48;;;17.80;99.90;;;;;;4631931;30;20055;-82
2022/05/23 07:36:23;;;;;;;2.30;2.10;;;17.90;99.90;;;;;;4640691;30;20070;-82
2022/05/23 07:39:08;;;;;;;2.22;2.08;;;17.80;99.90;;;;;;4628105;30;20494;-82
2022/05/23 07:42:07;;;;;;;3.28;3.03;;;17.60;99.90;;;;;;4620918;30;20098;-83
2022/05/23 07:44:37;;;;;;;2.30;2.10;;;17.30;99.90;;;;;;4626365;30;20431;-87
2022/05/23 07:47:12;;;;;;;1.70;1.60;;;17.20;99.90;;;;;;4638391;30;20051;-82
2022/05/23 07:49:51;;;;;;;2.20;2.00;;;17.10;99.90;;;;;;4635512;30;20062;-82
2022/05/23 07:52:21;;;;;;;2.25;2.05;;;17.00;99.90;;;;;;4618038;30;20058;-84
2022/05/23 08:00:40;;;;;;;4.88;2.88;;;16.30;99.90;;;;;;4622091;31;20415;-85
2022/05/23 08:03:19;;;;;;;2.90;2.53;;;16.10;99.90;;;;;;4611013;31;20613;-86
2022/05/23 08:06:05;;;;;;;3.25;3.05;;;15.90;99.90;;;;;;4621343;31;20044;-84
2022/05/23 08:08:35;;;;;;;6.63;2.83;;;15.80;99.90;;;;;;4623482;31;20055;-86
2022/05/23 08:11:08;;;;;;;2.92;2.55;;;15.80;99.90;;;;;;4596369;31;20055;-89
2022/05/23 08:13:48;;;;;;;2.05;1.95;;;15.90;99.90;;;;;;4610897;31;20090;-87
2022/05/23 08:16:17;;;;;;;2.25;2.15;;;16.00;99.90;;;;;;4625141;30;20082;-88
2022/05/23 08:18:45;;;;;;;9.13;2.58;;;16.20;99.90;;;;;;4597973;31;20055;-87
2022/05/23 08:21:15;;;;;;;3.45;2.72;;;16.50;99.90;;;;;;4608534;31;20043;-88
2022/05/23 08:23:44;;;;;;;2.58;2.38;;;16.60;99.90;;;;;;4628449;30;20066;-90
2022/05/23 08:26:18;;;;;;;2.42;2.25;;;16.60;99.90;;;;;;4625467;31;20047;-88
2022/05/23 08:28:47;;;;;;;3.78;3.10;;;16.50;99.90;;;;;;4635902;30;20067;-88
2022/05/23 08:31:27;;;;;;;3.55;2.15;;;16.40;99.90;;;;;;4607145;31;20060;-88
2022/05/23 08:34:13;;;;;;;9.98;3.60;;;16.40;99.90;;;;;;4581247;31;20064;-88
2022/05/23 08:36:59;;;;;;;4.50;4.05;;;16.40;99.90;;;;;;4574509;31;20245;-90
2022/05/23 08:39:29;;;;;;;2.90;2.67;;;16.60;99.90;;;;;;4621598;30;20062;-89
2022/05/23 08:42:41;;;;;;;2.88;2.67;;;16.70;99.90;;;;;;4612465;30;20060;-90
2022/05/23 08:45:25;;;;;;;3.88;2.38;;;16.70;99.90;;;;;;4589774;31;20059;-90
2022/05/23 08:48:17;;;;;;;2.22;2.13;;;16.90;99.90;;;;;;4610921;31;20059;-88
2022/05/23 08:51:11;;;;;;;4.15;2.08;;;17.10;99.90;;;;;;4621858;30;20806;-89
2022/05/23 08:54:23;;;;;;;5.45;2.70;;;17.30;99.90;;;;;;4601069;31;20056;-90
2022/05/23 08:57:21;;;;;;;2.95;2.35;;;17.50;99.90;;;;;;4611018;30;20060;-90
2022/05/23 09:00:00;;;;;;;;;;;17.40;99.90;;;;;;4625276;31;20069;-89
2022/05/23 09:03:27;;;;;;;12.40;2.22;;;17.30;99.90;;;;;;4588547;31;19933;-90
2022/05/23 09:06:18;;;;;;;4.63;3.03;;;17.10;99.90;;;;;;4620878;30;20052;-92
2022/05/23 09:08:51;;;;;;;3.85;3.55;;;16.90;99.90;;;;;;4606102;31;20791;-87
2022/05/23 09:12:01;;;;;;;3.67;2.97;;;16.90;99.90;;;;;;4595901;31;20064;-88
2022/05/23 09:14:33;;;;;;;7.97;2.97;;;16.90;99.90;;;;;;4608360;31;20055;-88
2022/05/23 09:17:02;;;;;;;2.17;2.05;;;16.90;99.90;;;;;;4609358;30;20503;-90
2022/05/23 09:20:40;;;;;;;10.23;2.70;;;17.00;99.90;;;;;;4605823;31;20060;-84
2022/05/23 09:23:38;;;;;;;3.20;2.67;;;17.10;99.90;;;;;;4595042;31;20431;-88
2022/05/23 09:26:17;;;;;;;5.00;3.42;;;17.30;99.90;;;;;;4607422;30;20201;-89
2022/05/23 09:28:45;;;;;;;4.20;3.13;;;17.70;99.90;;;;;;4598437;31;20048;-91
2022/05/23 09:31:37;;;;;;;2.92;2.40;;;17.80;99.90;;;;;;4619029;30;20055;-89
2022/05/23 09:34:45;;;;;;;2.25;1.98;;;17.80;99.90;;;;;;4624653;30;20056;-88
2022/05/23 09:37:36;;;;;;;4.07;2.42;;;18.00;99.90;;;;;;4623282;30;20520;-89
2022/05/23 09:40:29;;;;;;;2.47;2.28;;;18.40;99.90;;;;;;4626241;30;20067;-90
2022/05/23 09:49:21;;;;;;;4.00;2.88;;;19.00;99.90;;;;;;4596573;31;20059;-88
2022/05/23 09:52:02;;;;;;;1.95;1.80;;;19.10;99.90;;;;;;4608785;31;20488;-88
2022/05/23 09:54:43;;;;;;;2.53;2.25;;;19.10;99.90;;;;;;4622262;30;20063;-89
2022/05/23 09:57:52;;;;;;;3.08;2.72;;;19.20;99.90;;;;;;4609024;30;20063;-87
2022/05/23 10:00:22;;;;;;;2.95;2.75;;;19.30;99.90;;;;;;4609756;31;20576;-86
2022/05/23 10:03:01;;;;;;;9.80;2.65;;;19.40;99.90;;;;;;4601870;31;20827;-87
2022/05/23 10:05:43;;;;;;;5.47;3.08;;;19.50;99.90;;;;;;4595650;30;20923;-87
2022/05/23 10:08:50;;;;;;;2.33;2.13;;;19.70;99.90;;;;;;4592791;31;20416;-85
2022/05/23 10:11:55;;;;;;;1.63;1.48;;;19.70;99.90;;;;;;4611999;31;20063;-89
2022/05/23 10:14:25;;;;;;;2.95;2.75;;;19.70;99.90;;;;;;4626840;30;20047;-88
2022/05/23 10:16:56;;;;;;;3.85;1.83;;;20.00;99.90;;;;;;4610706;30;20070;-84
2022/05/23 10:19:33;;;;;;;2.17;1.98;;;20.10;99.90;;;;;;4639428;30;20055;-88
2022/05/23 10:22:09;;;;;;;3.70;2.58;;;20.20;99.90;;;;;;4613010;30;20059;-87
2022/05/23 10:25:00;;;;;;;3.15;2.95;;;20.40;99.90;;;;;;4611535;30;20056;-87
2022/05/23 10:27:57;;;;;;;2.77;2.57;;;20.40;99.90;;;;;;4608859;31;20547;-89
2022/05/23 10:30:31;;;;;;;2.78;2.58;;;20.60;99.90;;;;;;4624635;30;20070;-88
2022/05/23 10:33:13;;;;;;;3.92;1.95;;;20.70;99.90;;;;;;4611634;31;20059;-88
2022/05/23 10:35:58;;;;;;;3.00;1.50;;;20.70;99.90;;;;;;4625682;30;20058;-90
2022/05/23 10:44:45;;;;;;;6.65;2.35;;;20.50;99.90;;;;;;4611170;30;20506;-86
2022/05/23 10:47:58;;;;;;;1.65;1.35;;;20.60;99.90;;;;;;4605934;31;20059;-86
2022/05/23 10:51:08;;;;;;;2.72;1.63;;;20.80;99.90;;;;;;4619695;30;20056;-84
2022/05/23 10:55:11;;;;;;;1.42;1.38;;;20.90;99.90;;;;;;4609329;31;20039;-83
2022/05/23 10:58:20;;;;;;;5.60;2.72;;;20.90;99.90;;;;;;4598979;31;20047;-82
2022/05/23 11:01:02;;;;;;;3.40;2.50;;;20.90;99.90;;;;;;4613250;31;20066;-80
2022/05/23 11:03:53;;;;;;;3.40;1.90;;;21.00;99.90;;;;;;4614349;31;20526;-81
2022/05/23 11:07:34;;;;;;;1.80;1.70;;;20.90;99.90;;;;;;4579632;31;20411;-80
2022/05/23 11:10:44;;;;;;;2.97;2.33;;;21.00;99.90;;;;;;4621688;30;20064;-78
2022/05/23 11:14:08;;;;;;;10.82;4.93;;;20.90;99.90;;;;;;4604393;31;20070;-83
2022/05/23 11:17:48;;;;;;;4.32;2.45;;;21.10;99.90;;;;;;4587573;31;20071;-83
2022/05/23 11:21:00;;;;;;;1.52;1.42;;;21.30;99.90;;;;;;4580236;31;21124;-85
2022/05/23 11:24:00;;;;;;;;;;;;;;;;;;;;;
2022/05/23 11:33:47;;;;;;;2.55;2.35;;;21.50;99.90;;;;;;4594456;31;20072;-80
2022/05/23 11:40:04;;;;;;;7.33;3.30;;;21.80;99.90;;;;;;4644038;30;20059;-89
2022/05/23 11:43:07;;;;;;;2.45;2.20;;;21.80;99.90;;;;;;4625301;30;20760;-89
2022/05/23 11:46:05;;;;;;;1.33;1.23;;;21.80;99.90;;;;;;4610996;31;20051;-89
2022/05/23 11:48:49;;;;;;;3.83;2.13;;;21.70;99.90;;;;;;4588122;31;20067;-90
2022/05/23 11:52:08;;;;;;;7.15;2.10;;;21.80;99.90;;;;;;4627860;31;20067;-90
2022/05/23 11:54:44;;;;;;;1.75;1.65;;;22.00;99.90;;;;;;4582532;30;20056;-92
2022/05/23 12:01:22;;;;;;;2.50;2.30;;;22.20;99.90;;;;;;4608126;31;20591;-88
2022/05/23 12:04:35;;;;;;;3.28;1.65;;;22.30;99.90;;;;;;4609001;31;20067;-92
2022/05/23 12:07:36;;;;;;;4.57;1.95;;;22.40;99.90;;;;;;4551052;31;20069;-91
2022/05/23 12:10:51;;;;;;;;;;;;;;;;;;;;;
2022/05/23 12:13:49;;;;;;;2.72;2.22;;;22.50;99.90;;;;;;4551481;31;20061;-82
2022/05/23 12:16:40;;;;;;;2.22;2.13;;;22.50;99.90;;;;;;4560294;31;20106;-86
2022/05/23 12:19:56;;;;;;;5.20;3.05;;;22.50;99.90;;;;;;4622316;30;20055;-89
2022/05/23 12:27:37;;;;;;;7.07;1.90;;;22.60;99.90;;;;;;4622252;30;20049;-90
2022/05/23 12:40:15;;;;;;;2.95;2.30;;;22.80;99.90;;;;;;4633201;30;20055;-93
2022/05/23 12:46:58;;;;;;;11.18;2.38;;;23.30;99.90;;;;;;4610939;30;20055;-90
2022/05/23 12:49:47;;;;;;;3.95;2.28;;;23.30;99.90;;;;;;4620076;30;20902;-91
2022/05/23 12:57:59;;;;;;;1.48;1.38;;;23.20;99.90;;;;;;4644505;30;20051;-92
2022/05/23 13:01:49;;;;;;;3.38;2.20;;;23.30;99.90;;;;;;4634272;30;20062;-89
2022/05/23 13:06:20;;;;;;;4.55;2.55;;;23.30;99.90;;;;;;4600169;30;20081;-84
2022/05/23 13:13:48;;;;;;;2.45;2.13;;;23.00;99.90;;;;;;4630188;30;20899;-84
2022/05/23 13:16:57;;;;;;;2.05;1.83;;;23.00;99.90;;;;;;4600009;30;20048;-86
2022/05/23 13:22:38;;;;;;;2.33;1.67;;;23.10;99.90;;;;;;4606455;31;20068;-84
2022/05/23 13:25:12;;;;;;;2.42;1.85;;;23.30;99.90;;;;;;4609260;31;20062;-85
2022/05/23 13:27:59;;;;;;;6.30;2.55;;;23.50;99.90;;;;;;4576002;31;20091;-84
2022/05/23 13:31:17;;;;;;;2.72;1.58;;;23.40;99.90;;;;;;4605278;30;20070;-84
2022/05/23 13:34:11;;;;;;;5.05;2.72;;;23.30;99.90;;;;;;4615504;30;20055;-83
2022/05/23 14:29:14;;;;;;;21.23;3.78;;;21.10;99.90;;;;;;4648682;30;20054;-86
2022/05/23 14:41:32;;;;;;;5.15;2.42;;;20.70;99.90;;;;;;4660564;30;20045;-88
2022/05/23 14:44:30;;;;;;;5.55;3.35;;;20.50;99.90;;;;;;4661780;30;20061;-88
2022/05/23 14:47:07;;;;;;;2.20;2.00;;;20.50;99.90;;;;;;4662855;30;20065;-89
2022/05/23 14:49:40;;;;;;;17.13;3.13;;;20.50;99.90;;;;;;4644932;30;20057;-88
2022/05/23 15:01:04;;;;;;;4.95;2.05;;;20.10;99.90;;;;;;4661102;30;20050;-87
2022/05/23 15:03:33;;;;;;;3.20;2.47;;;20.10;99.90;;;;;;4663002;30;20055;-86
2022/05/23 15:06:02;;;;;;;7.53;2.38;;;20.00;99.90;;;;;;4662578;30;20050;-86
2022/05/23 15:08:31;;;;;;;5.55;3.15;;;20.00;99.90;;;;;;4662567;30;20050;-87
2022/05/23 15:11:00;;;;;;;2.60;2.22;;;20.00;99.90;;;;;;4638856;30;20089;-86
2022/05/23 15:13:36;;;;;;;2.92;1.95;;;20.00;99.90;;;;;;4662813;30;20042;-90
2022/05/23 15:16:24;;;;;;;14.55;2.42;;;19.90;99.90;;;;;;4661612;30;20077;-86
2022/05/23 15:19:02;;;;;;;15.73;3.78;;;19.90;99.90;;;;;;4684994;30;20054;-88
2022/05/23 15:21:30;;;;;;;2.55;2.35;;;20.00;99.90;;;;;;4660526;30;20061;-87
2022/05/23 15:24:00;;;;;;;6.10;2.80;;;20.00;99.90;;;;;;4644225;30;20419;-86
2022/05/23 15:26:31;;;;;;;17.65;2.83;;;19.90;99.90;;;;;;4644265;30;20062;-86
2022/05/23 15:29:07;;;;;;;4.97;2.60;;;19.80;99.90;;;;;;4611180;30;20054;-86
2022/05/23 15:32:50;;;;;;;3.45;3.05;;;19.70;99.90;;;;;;4607443;30;20048;-92
2022/05/23 15:41:03;;;;;;;14.75;4.13;;;19.00;99.90;;;;;;5535123;25;20022;-86
2022/05/23 15:48:41;;;;;;;7.13;4.15;;;18.30;99.90;;;;;;4660524;30;20046;-87
2022/05/23 15:52:15;;;;;;;;;;;;;;;;;;;;;
2022/05/23 15:56:04;;;;;;;7.85;3.95;;;17.90;99.90;;;;;;4642316;30;20062;-91
2022/05/23 15:59:13;;;;;;;5.22;4.07;;;17.80;99.90;;;;;;4631833;30;20422;-90
2022/05/23 16:01:50;;;;;;;5.32;4.82;;;17.70;99.90;;;;;;4595164;30;20125;-89
2022/05/23 16:04:27;;;;;;;7.72;4.28;;;17.60;99.90;;;;;;4580902;31;20064;-89
2022/05/23 16:07:09;;;;;;;5.07;3.78;;;17.40;99.90;;;;;;4601593;31;20512;-88
2022/05/23 16:09:46;;;;;;;6.38;4.50;;;17.30;99.90;;;;;;4562343;31;20064;-89
2022/05/23 16:12:22;;;;;;;5.72;4.30;;;17.20;99.90;;;;;;4568108;31;20060;-89
2022/05/23 16:15:13;;;;;;;3.83;3.42;;;17.10;99.90;;;;;;4574319;31;20060;-85
2022/05/23 16:17:58;;;;;;;4.72;4.40;;;17.10;99.90;;;;;;4593731;31;20621;-89
2022/05/23 16:20:49;;;;;;;15.88;3.95;;;17.10;99.90;;;;;;4581782;31;20071;-90
2022/05/23 16:23:30;;;;;;;;;;;17.10;99.90;;;;;;4584541;31;20059;-89
2022/05/23 16:26:03;;;;;;;3.15;2.78;;;17.10;99.90;;;;;;4565010;31;19940;-89
2022/05/23 16:28:48;;;;;;;3.58;3.38;;;17.10;99.90;;;;;;4642311;30;20054;-87
2022/05/23 16:31:25;;;;;;;8.93;2.92;;;17.10;99.90;;;;;;4629104;30;20074;-86
2022/05/23 16:38:32;;;;;;;4.70;2.72;;;17.00;99.90;;;;;;4620181;30;20405;-87
2022/05/23 16:41:55;;;;;;;;;;;;;;;;;;;;;
2022/05/23 16:44:49;;;;;;;4.50;4.07;;;17.00;99.90;;;;;;4621213;30;20063;-88
2022/05/23 16:48:20;;;;;;;;;;;;;;;;;;;;;
2022/05/23 17:02:22;;;;;;;8.80;3.33;;;17.30;99.90;;;;;;5080758;27;20134;-85
2022/05/23 17:04:54;;;;;;;10.35;4.35;;;17.40;99.90;;;;;;5047599;28;20029;-84
2022/05/23 17:07:30;;;;;;;3.78;3.47;;;17.40;99.90;;;;;;5019999;28;20502;-85
2022/05/23 17:10:06;;;;;;;6.57;3.47;;;17.30;99.90;;;;;;5071785;28;20044;-83
2022/05/23 17:12:34;;;;;;;3.72;3.38;;;17.30;99.90;;;;;;5070980;28;20047;-82
2022/05/23 17:15:03;;;;;;;6.15;3.60;;;17.30;99.90;;;;;;5069279;28;20040;-81
2022/05/23 17:22:45;;;;;;;11.52;5.35;;;17.20;99.90;;;;;;5054168;28;20036;-85
2022/05/23 17:25:41;;;;;;;4.25;3.55;;;17.20;99.90;;;;;;5002650;28;20037;-85
2022/05/23 17:28:19;;;;;;;5.28;4.78;;;17.30;99.90;;;;;;5037038;28;20048;-84
2022/05/23 17:30:58;;;;;;;4.38;4.07;;;17.30;99.90;;;;;;5066742;28;20488;-86
2022/05/23 17:33:30;;;;;;;3.53;3.22;;;17.20;99.90;;;;;;5036423;28;20826;-84
2022/05/23 17:36:02;;;;;;;6.50;3.92;;;17.20;99.90;;;;;;5089134;28;20047;-84
2022/05/23 17:38:30;;;;;;;5.85;3.75;;;17.20;99.90;;;;;;5088059;28;20036;-84
2022/05/23 17:41:00;;;;;;;5.15;4.63;;;17.20;99.90;;;;;;5087118;28;20048;-84
2022/05/23 17:43:43;;;;;;;3.83;3.40;;;17.20;99.90;;;;;;5087755;28;20525;-85
2022/05/23 17:46:24;;;;;;;4.50;3.72;;;17.20;99.90;;;;;;5086220;28;20407;-82